Time;durP1;ratioP1;P1;durP2;ratioP2;P2;SDS_P1;SDS_P2;PMS_P1;PMS_P2;Temp;Humidity;BMP_temperature;BMP_pressure;BME280_temperature;BME280_humidity;BME280_pressure;Samples;Min_cycle;Max_cycle;Signal;HPM_P1;HPM_P2
2021/01/11 00:02:00;;;;;;;85.93;22.38;;;-4.90;99.90;;;;;;5072664;28;20232;-68
2021/01/11 00:04:26;;;;;;;85.07;22.13;;;-4.90;99.90;;;;;;5072599;28;20662;-68
2021/01/11 00:06:54;;;;;;;85.20;22.08;;;-4.90;99.90;;;;;;5072902;28;20201;-67
2021/01/11 00:09:21;;;;;;;87.53;23.63;;;-4.90;99.90;;;;;;5071831;28;20233;-67
2021/01/11 00:11:47;;;;;;;89.80;21.58;;;-4.90;99.90;;;;;;5072129;28;20258;-68
2021/01/11 00:14:15;;;;;;;88.13;22.75;;;-4.90;99.90;;;;;;5072362;28;20730;-67
2021/01/11 00:16:41;;;;;;;90.30;21.58;;;-4.90;99.90;;;;;;5072687;28;20271;-68
2021/01/11 00:19:08;;;;;;;82.32;21.45;;;-5.00;99.90;;;;;;5071946;28;20311;-68
2021/01/11 00:21:35;;;;;;;85.80;20.88;;;-5.00;99.90;;;;;;5071210;28;20207;-68
2021/01/11 00:24:01;;;;;;;92.53;24.33;;;-5.00;99.90;;;;;;5071931;28;20616;-68
2021/01/11 00:26:27;;;;;;;92.47;22.75;;;-5.00;99.90;;;;;;5072146;28;20258;-68
2021/01/11 00:28:54;;;;;;;91.22;24.75;;;-5.10;99.90;;;;;;5071737;28;20240;-68
2021/01/11 00:31:22;;;;;;;96.63;27.45;;;-5.00;99.90;;;;;;5071713;28;20209;-68
2021/01/11 00:33:49;;;;;;;88.80;24.13;;;-5.10;99.90;;;;;;5072047;28;20205;-68
2021/01/11 00:36:15;;;;;;;90.43;22.40;;;-5.10;99.90;;;;;;5071901;28;20291;-68
2021/01/11 00:38:42;;;;;;;85.88;22.75;;;-5.10;99.90;;;;;;5071222;28;20332;-68
2021/01/11 00:41:08;;;;;;;82.45;20.05;;;-5.10;99.90;;;;;;5071718;28;20695;-68
2021/01/11 00:43:35;;;;;;;82.07;19.75;;;-5.10;99.90;;;;;;5071644;28;20209;-68
2021/01/11 00:46:01;;;;;;;80.13;19.25;;;-5.10;99.90;;;;;;5071712;28;20659;-68
2021/01/11 00:48:28;;;;;;;87.35;20.55;;;-5.20;99.90;;;;;;5071343;28;20591;-68
2021/01/11 00:50:54;;;;;;;85.72;20.85;;;-5.20;99.90;;;;;;5071650;28;20212;-68
2021/01/11 00:53:21;;;;;;;82.03;20.17;;;-5.20;99.90;;;;;;5071379;28;20282;-68
2021/01/11 00:55:47;;;;;;;81.50;19.15;;;-5.20;99.90;;;;;;5071790;28;20201;-68
2021/01/11 00:58:13;;;;;;;92.40;22.00;;;-5.30;99.90;;;;;;5071248;28;20229;-68
2021/01/11 01:00:39;;;;;;;85.75;22.00;;;-5.30;99.90;;;;;;5071682;28;20211;-68
2021/01/11 01:03:06;;;;;;;82.95;20.80;;;-5.30;99.90;;;;;;5071679;28;20204;-68
2021/01/11 01:05:33;;;;;;;85.20;21.85;;;-5.30;99.90;;;;;;5071483;28;20232;-68
2021/01/11 01:08:01;;;;;;;86.63;22.75;;;-5.30;99.90;;;;;;5071195;28;20232;-68
2021/01/11 01:10:27;;;;;;;89.28;21.65;;;-5.40;99.90;;;;;;5071409;28;20216;-68
2021/01/11 01:12:53;;;;;;;81.38;19.40;;;-5.40;99.90;;;;;;5071628;28;20562;-68
2021/01/11 01:15:20;;;;;;;85.55;20.73;;;-5.40;99.90;;;;;;5071448;28;20578;-68
2021/01/11 01:17:46;;;;;;;89.20;21.77;;;-5.40;99.90;;;;;;5071084;28;20229;-68
2021/01/11 01:20:15;;;;;;;84.90;19.65;;;-5.50;99.90;;;;;;5071090;28;20577;-68
2021/01/11 01:22:44;;;;;;;91.20;20.90;;;-5.50;99.90;;;;;;5071413;28;20250;-68
2021/01/11 01:25:12;;;;;;;86.68;20.88;;;-5.50;99.90;;;;;;5071084;28;20711;-68
2021/01/11 01:27:38;;;;;;;88.47;23.15;;;-5.50;99.90;;;;;;5071037;28;20200;-68
2021/01/11 01:30:06;;;;;;;88.25;21.45;;;-5.50;99.90;;;;;;5071250;28;20273;-68
2021/01/11 01:32:32;;;;;;;89.93;23.75;;;-5.60;99.90;;;;;;5072858;28;20207;-68
2021/01/11 01:34:59;;;;;;;90.60;22.75;;;-5.60;99.90;;;;;;5075227;28;20709;-68
2021/01/11 01:37:25;;;;;;;90.22;22.23;;;-5.60;99.90;;;;;;5075217;28;20248;-68
2021/01/11 01:39:52;;;;;;;85.05;21.13;;;-5.60;99.90;;;;;;5075087;28;20206;-68
2021/01/11 01:42:19;;;;;;;87.90;21.90;;;-5.60;99.90;;;;;;5075228;28;20238;-68
2021/01/11 01:44:45;;;;;;;87.18;22.55;;;-5.60;99.90;;;;;;5075160;28;20251;-68
2021/01/11 01:47:11;;;;;;;90.65;23.73;;;-5.60;99.90;;;;;;5074955;28;20786;-68
2021/01/11 01:49:38;;;;;;;90.35;22.20;;;-5.70;99.90;;;;;;5074651;28;20743;-68
2021/01/11 01:52:07;;;;;;;89.72;22.05;;;-5.70;99.90;;;;;;5075197;28;20215;-68
2021/01/11 01:54:34;;;;;;;83.43;20.73;;;-5.70;99.90;;;;;;5075118;28;20201;-68
2021/01/11 01:57:02;;;;;;;85.32;20.08;;;-5.70;99.90;;;;;;5074994;28;20209;-68
2021/01/11 01:59:29;;;;;;;83.95;19.35;;;-5.70;99.90;;;;;;5074990;28;20229;-68
2021/01/11 02:01:55;;;;;;;81.70;19.83;;;-5.70;99.90;;;;;;5074507;28;20672;-68
2021/01/11 02:04:22;;;;;;;83.13;19.50;;;-5.80;99.90;;;;;;5074967;28;20224;-68
2021/01/11 02:06:52;;;;;;;83.38;19.35;;;-5.80;99.90;;;;;;5074713;28;20215;-68
2021/01/11 02:09:26;;;;;;;81.43;19.63;;;-5.80;99.90;;;;;;5074349;28;20232;-68
2021/01/11 02:11:57;;;;;;;86.88;21.73;;;-5.80;99.90;;;;;;5075214;28;20212;-68
2021/01/11 02:14:41;;;;;;;82.78;19.33;;;-5.80;99.90;;;;;;5074405;28;20234;-68
2021/01/11 02:17:09;;;;;;;89.65;20.60;;;-5.80;99.90;;;;;;5074862;28;20223;-68
2021/01/11 02:20:11;;;;;;;86.75;20.92;;;-5.90;99.90;;;;;;5074100;28;20229;-68
2021/01/11 02:22:45;;;;;;;82.97;20.48;;;-5.90;99.90;;;;;;5058975;28;20204;-68
2021/01/11 02:25:33;;;;;;;87.30;21.55;;;-5.90;99.90;;;;;;5074649;28;20754;-68
2021/01/11 02:28:00;;;;;;;86.72;23.10;;;-5.90;99.90;;;;;;5073993;28;20244;-68
2021/01/11 02:30:30;;;;;;;88.90;20.45;;;-6.00;99.90;;;;;;5074220;28;20290;-68
2021/01/11 02:33:00;;;;;;;81.32;21.00;;;-5.90;99.90;;;;;;5074352;28;20216;-68
2021/01/11 02:35:28;;;;;;;82.03;20.42;;;-5.90;99.90;;;;;;5074174;28;20204;-68
2021/01/11 02:37:56;;;;;;;85.60;22.83;;;-6.00;99.90;;;;;;5074020;28;20232;-68
2021/01/11 02:40:23;;;;;;;87.95;21.63;;;-6.00;99.90;;;;;;5074036;28;20208;-68
2021/01/11 02:42:49;;;;;;;86.63;21.35;;;-6.00;99.90;;;;;;5074252;28;20209;-68
2021/01/11 02:45:16;;;;;;;84.55;21.23;;;-6.00;99.90;;;;;;5072820;28;20223;-68
2021/01/11 02:47:59;;;;;;;89.15;22.38;;;-6.10;99.90;;;;;;5073422;28;20209;-68
2021/01/11 02:50:26;;;;;;;81.13;18.60;;;-6.10;99.90;;;;;;5074055;28;20220;-68
2021/01/11 02:53:06;;;;;;;88.85;19.60;;;-6.10;99.90;;;;;;5074059;28;20685;-68
2021/01/11 02:55:48;;;;;;;89.20;21.27;;;-6.10;99.90;;;;;;5052295;28;20260;-68
2021/01/11 02:58:25;;;;;;;86.55;19.38;;;-6.10;99.90;;;;;;5053756;28;20706;-68
2021/01/11 03:00:54;;;;;;;83.93;20.02;;;-6.10;99.90;;;;;;5053892;28;20230;-68
2021/01/11 03:03:23;;;;;;;85.20;20.20;;;-6.10;99.90;;;;;;5053957;28;20217;-68
2021/01/11 03:05:50;;;;;;;87.00;20.15;;;-6.10;99.90;;;;;;5053534;28;20526;-68
2021/01/11 03:08:22;;;;;;;82.80;19.40;;;-6.10;99.90;;;;;;5053470;28;20234;-68
2021/01/11 03:10:51;;;;;;;85.90;20.27;;;-6.10;99.90;;;;;;5053572;28;20205;-68
2021/01/11 03:13:17;;;;;;;82.13;19.23;;;-6.10;99.90;;;;;;5053418;28;20202;-68
2021/01/11 03:15:44;;;;;;;78.53;18.55;;;-6.00;99.90;;;;;;5053539;28;20615;-68
2021/01/11 03:18:10;;;;;;;86.45;20.25;;;-6.10;99.90;;;;;;5052822;28;20765;-68
2021/01/11 03:20:37;;;;;;;85.25;19.70;;;-6.00;99.90;;;;;;5053392;28;20220;-68
2021/01/11 03:23:03;;;;;;;80.15;18.50;;;-6.00;99.90;;;;;;5053380;28;20210;-68
2021/01/11 03:25:30;;;;;;;81.70;19.10;;;-6.00;99.90;;;;;;5053318;28;20248;-68
2021/01/11 03:27:56;;;;;;;85.93;19.15;;;-6.00;99.90;;;;;;5052793;28;20244;-68
2021/01/11 03:30:23;;;;;;;82.15;20.10;;;-6.00;99.90;;;;;;5085109;22;20605;-66
2021/01/11 03:32:49;;;;;;;81.80;20.65;;;-6.10;99.90;;;;;;5052906;28;20202;-67
2021/01/11 03:35:16;;;;;;;84.45;20.33;;;-6.10;99.90;;;;;;5053384;28;20550;-67
2021/01/11 03:37:43;;;;;;;84.50;21.38;;;-6.10;99.90;;;;;;5052805;28;20216;-66
2021/01/11 03:40:10;;;;;;;86.88;22.00;;;-6.10;99.90;;;;;;5053110;28;20927;-67
2021/01/11 03:42:37;;;;;;;83.90;21.35;;;-6.10;99.90;;;;;;5052987;28;20202;-66
2021/01/11 03:45:05;;;;;;;89.93;20.73;;;-6.10;99.90;;;;;;5052730;28;20264;-67
2021/01/11 03:47:31;;;;;;;83.78;21.10;;;-6.10;99.90;;;;;;5052689;28;20217;-67
2021/01/11 03:49:58;;;;;;;83.68;19.98;;;-6.10;99.90;;;;;;5052631;28;20237;-67
2021/01/11 03:52:24;;;;;;;86.28;20.00;;;-6.10;99.90;;;;;;5053127;28;20252;-67
2021/01/11 03:54:51;;;;;;;81.90;19.73;;;-6.20;99.90;;;;;;5052663;28;20628;-67
2021/01/11 03:57:18;;;;;;;82.68;19.85;;;-6.10;99.90;;;;;;5052820;28;20260;-66
2021/01/11 03:59:44;;;;;;;83.57;20.05;;;-6.20;99.90;;;;;;5052045;28;20234;-67
2021/01/11 04:02:11;;;;;;;83.72;20.50;;;-6.20;99.90;;;;;;5052866;28;20217;-67
2021/01/11 04:04:37;;;;;;;82.55;19.48;;;-6.20;99.90;;;;;;5052369;28;20692;-66
2021/01/11 04:07:04;;;;;;;81.18;19.90;;;-6.20;99.90;;;;;;5052668;28;20209;-67
2021/01/11 04:09:30;;;;;;;83.22;18.90;;;-6.20;99.90;;;;;;5052004;28;20234;-67
2021/01/11 04:11:57;;;;;;;87.57;20.92;;;-6.30;99.90;;;;;;5056630;28;20263;-67
2021/01/11 04:14:24;;;;;;;85.40;20.55;;;-6.30;99.90;;;;;;5055978;28;20320;-66
2021/01/11 04:16:52;;;;;;;83.95;19.42;;;-6.30;99.90;;;;;;5052394;28;20205;-67
2021/01/11 04:19:19;;;;;;;82.03;19.20;;;-6.30;99.90;;;;;;5052276;28;20283;-66
2021/01/11 04:21:45;;;;;;;77.97;17.35;;;-6.30;99.90;;;;;;5052110;28;20206;-67
2021/01/11 04:24:12;;;;;;;80.47;19.55;;;-6.30;99.90;;;;;;5052111;28;20216;-66
2021/01/11 04:26:38;;;;;;;82.07;19.17;;;-6.30;99.90;;;;;;5052022;28;20205;-66
2021/01/11 04:29:06;;;;;;;82.00;20.55;;;-6.40;99.90;;;;;;5051524;28;20651;-67
2021/01/11 04:31:32;;;;;;;81.82;19.40;;;-6.40;99.90;;;;;;5052144;28;20714;-66
2021/01/11 04:33:58;;;;;;;79.43;16.85;;;-6.40;99.90;;;;;;5052336;28;20216;-66
2021/01/11 04:36:24;;;;;;;82.43;18.38;;;-6.50;99.90;;;;;;5052121;28;20208;-67
2021/01/11 04:38:51;;;;;;;85.07;19.92;;;-6.40;99.90;;;;;;5051463;28;20226;-66
2021/01/11 04:41:20;;;;;;;85.43;20.20;;;-6.50;99.90;;;;;;5051873;28;20210;-67
2021/01/11 04:43:49;;;;;;;84.43;20.48;;;-6.50;99.90;;;;;;5051904;28;20206;-66
2021/01/11 04:46:17;;;;;;;82.97;20.13;;;-6.50;99.90;;;;;;5051979;28;20590;-67
2021/01/11 04:48:43;;;;;;;80.35;18.88;;;-6.50;99.90;;;;;;5051328;28;20234;-67
2021/01/11 04:51:10;;;;;;;89.65;21.08;;;-6.50;99.90;;;;;;5051829;28;20205;-66
2021/01/11 04:53:41;;;;;;;79.88;19.42;;;-6.50;99.90;;;;;;5051609;28;20577;-66
2021/01/11 04:56:11;;;;;;;80.57;18.02;;;-6.50;99.90;;;;;;5051584;28;20202;-66
2021/01/11 04:58:55;;;;;;;80.15;17.50;;;-6.60;99.90;;;;;;5051489;28;20213;-66
2021/01/11 05:01:23;;;;;;;80.18;17.77;;;-6.60;99.90;;;;;;5051680;28;20223;-66
2021/01/11 05:03:51;;;;;;;81.40;19.10;;;-6.60;99.90;;;;;;5051494;28;20206;-66
2021/01/11 05:06:18;;;;;;;84.72;21.17;;;-6.60;99.90;;;;;;5051139;28;20822;-67
2021/01/11 05:08:45;;;;;;;83.10;19.27;;;-6.60;99.90;;;;;;5050727;28;20232;-66
2021/01/11 05:11:12;;;;;;;78.25;19.35;;;-6.60;99.90;;;;;;5051386;28;20205;-67
2021/01/11 05:13:38;;;;;;;81.88;18.10;;;-6.60;99.90;;;;;;5051584;28;20263;-67
2021/01/11 05:16:12;;;;;;;84.50;19.60;;;-6.60;99.90;;;;;;5051439;28;20213;-66
2021/01/11 05:18:40;;;;;;;81.07;19.38;;;-6.70;99.90;;;;;;5051415;28;20212;-67
2021/01/11 05:21:07;;;;;;;79.72;19.33;;;-6.70;99.90;;;;;;5051002;28;20209;-66
2021/01/11 05:23:37;;;;;;;81.45;19.55;;;-6.70;99.90;;;;;;5051379;28;20206;-66
2021/01/11 05:26:14;;;;;;;78.63;18.58;;;-6.70;99.90;;;;;;5051321;28;20226;-66
2021/01/11 05:28:41;;;;;;;77.28;16.42;;;-6.70;99.90;;;;;;5050920;28;20209;-67
2021/01/11 05:31:08;;;;;;;79.80;16.38;;;-6.70;99.90;;;;;;5051318;28;20612;-67
2021/01/11 05:33:34;;;;;;;78.05;15.10;;;-6.70;99.90;;;;;;5050931;28;20213;-66
2021/01/11 05:36:07;;;;;;;76.72;17.23;;;-6.80;99.90;;;;;;5051439;28;20216;-66
2021/01/11 05:38:36;;;;;;;81.15;16.38;;;-6.80;99.90;;;;;;5050676;28;20297;-67
2021/01/11 05:41:16;;;;;;;84.78;18.40;;;-6.80;99.90;;;;;;5051280;28;20205;-67
2021/01/11 05:43:42;;;;;;;77.35;16.25;;;-6.80;99.90;;;;;;5051063;28;20468;-67
2021/01/11 05:46:26;;;;;;;77.95;17.77;;;-6.80;99.90;;;;;;5050903;28;20594;-67
2021/01/11 05:49:03;;;;;;;83.00;17.60;;;-6.80;99.90;;;;;;5050460;28;20742;-67
2021/01/11 05:51:32;;;;;;;75.22;16.05;;;-6.80;99.90;;;;;;5051191;28;20206;-67
2021/01/11 05:53:58;;;;;;;82.22;17.45;;;-6.80;99.90;;;;;;5050841;28;20221;-66
2021/01/11 05:56:25;;;;;;;79.28;16.50;;;-6.80;99.90;;;;;;5050923;28;20208;-67
2021/01/11 05:59:08;;;;;;;78.60;17.77;;;-6.80;99.90;;;;;;5050670;28;20264;-67
2021/01/11 06:01:36;;;;;;;84.75;17.45;;;-6.80;99.90;;;;;;5050967;28;20245;-67
2021/01/11 06:04:03;;;;;;;81.63;17.58;;;-6.80;99.90;;;;;;5050650;28;20201;-66
2021/01/11 06:06:31;;;;;;;85.18;18.20;;;-6.90;99.90;;;;;;5050900;28;20226;-66
2021/01/11 06:08:57;;;;;;;81.35;16.92;;;-6.90;99.90;;;;;;5051626;28;20226;-67
2021/01/11 06:11:25;;;;;;;77.50;17.63;;;-6.90;99.90;;;;;;5055266;28;20209;-66
2021/01/11 06:13:52;;;;;;;82.10;16.42;;;-6.90;99.90;;;;;;5056115;28;20205;-66
2021/01/11 06:16:20;;;;;;;76.93;15.13;;;-6.90;99.90;;;;;;5050981;28;20284;-67
2021/01/11 06:18:49;;;;;;;80.30;16.73;;;-6.90;99.90;;;;;;5050817;28;20312;-67
2021/01/11 06:21:16;;;;;;;81.00;17.58;;;-6.90;99.90;;;;;;5054402;28;20239;-66
2021/01/11 06:23:43;;;;;;;77.63;16.42;;;-6.90;99.90;;;;;;5054327;28;20206;-66
2021/01/11 06:26:29;;;;;;;88.38;18.15;;;-6.90;99.90;;;;;;5054377;28;20645;-67
2021/01/11 06:28:56;;;;;;;82.60;16.85;;;-6.90;99.90;;;;;;5054380;28;20229;-66
2021/01/11 06:31:27;;;;;;;77.65;16.70;;;-6.90;99.90;;;;;;5054288;28;20205;-66
2021/01/11 06:33:54;;;;;;;81.63;17.65;;;-6.90;99.90;;;;;;5054282;28;20205;-66
2021/01/11 06:36:23;;;;;;;81.65;16.98;;;-6.90;99.90;;;;;;5054371;28;20206;-67
2021/01/11 06:38:51;;;;;;;84.10;17.83;;;-6.90;99.90;;;;;;5054000;28;20630;-66
2021/01/11 06:41:19;;;;;;;83.35;18.35;;;-6.90;99.90;;;;;;5054274;28;20296;-67
2021/01/11 06:43:47;;;;;;;85.88;20.10;;;-6.90;99.90;;;;;;5054110;28;20216;-66
2021/01/11 06:46:29;;;;;;;81.03;19.75;;;-6.90;99.90;;;;;;5054075;28;20231;-66
2021/01/11 06:48:57;;;;;;;77.88;16.48;;;-6.90;99.90;;;;;;5053351;28;20229;-67
2021/01/11 06:51:30;;;;;;;81.07;16.80;;;-6.90;99.90;;;;;;5054076;28;20208;-67
2021/01/11 06:54:07;;;;;;;84.60;18.40;;;-6.90;99.90;;;;;;5053818;28;20210;-67
2021/01/11 06:56:36;;;;;;;83.55;19.40;;;-6.90;99.90;;;;;;5053990;28;20209;-67
2021/01/11 06:59:06;;;;;;;81.22;18.02;;;-6.90;99.90;;;;;;5052980;28;20268;-67
2021/01/11 07:01:37;;;;;;;83.57;18.58;;;-6.90;99.90;;;;;;5053582;28;20322;-68
2021/01/11 07:04:04;;;;;;;86.50;21.05;;;-6.90;99.90;;;;;;5053787;28;20212;-67
2021/01/11 07:06:35;;;;;;;86.68;20.70;;;-6.90;99.90;;;;;;5053582;28;20728;-67
2021/01/11 07:09:10;;;;;;;79.05;17.58;;;-6.90;99.90;;;;;;5052987;28;20704;-67
2021/01/11 07:11:39;;;;;;;79.85;17.20;;;-6.90;99.90;;;;;;5053464;28;20245;-67
2021/01/11 07:14:06;;;;;;;83.05;18.33;;;-6.90;99.90;;;;;;5053677;28;20205;-67
2021/01/11 07:16:39;;;;;;;82.63;18.33;;;-6.80;99.90;;;;;;5053399;28;20664;-67
2021/01/11 07:19:06;;;;;;;87.40;20.15;;;-6.80;99.90;;;;;;5053192;28;20661;-67
2021/01/11 07:21:34;;;;;;;85.78;19.90;;;-6.80;99.90;;;;;;5053361;28;20535;-67
2021/01/11 07:24:01;;;;;;;77.20;16.80;;;-6.80;99.90;;;;;;5053188;28;20212;-67
2021/01/11 07:26:28;;;;;;;82.15;19.48;;;-6.80;99.90;;;;;;5053510;28;20650;-67
2021/01/11 07:28:57;;;;;;;83.22;18.48;;;-6.80;99.90;;;;;;5053028;28;20255;-67
2021/01/11 07:31:26;;;;;;;79.88;17.05;;;-6.70;99.90;;;;;;5052699;28;20220;-67
2021/01/11 07:34:03;;;;;;;83.93;17.45;;;-6.70;99.90;;;;;;5053255;28;20719;-67
2021/01/11 07:36:35;;;;;;;83.53;17.33;;;-6.70;99.90;;;;;;5052994;28;20688;-67
2021/01/11 07:39:18;;;;;;;89.85;21.13;;;-6.60;99.90;;;;;;5052993;28;20316;-67
2021/01/11 07:41:48;;;;;;;84.80;18.83;;;-6.60;99.90;;;;;;5052990;28;20292;-67
2021/01/11 07:44:22;;;;;;;81.95;17.50;;;-6.60;99.90;;;;;;5053045;28;20214;-67
2021/01/11 07:46:54;;;;;;;85.45;19.48;;;-6.50;99.90;;;;;;5052461;28;20224;-67
2021/01/11 07:49:21;;;;;;;90.82;20.30;;;-6.50;99.90;;;;;;5052619;28;20238;-67
2021/01/11 07:51:49;;;;;;;83.47;19.48;;;-6.50;99.90;;;;;;5052948;28;20205;-67
2021/01/11 07:54:16;;;;;;;86.55;19.95;;;-6.40;99.90;;;;;;5053123;28;20205;-67
2021/01/11 07:56:44;;;;;;;89.63;22.23;;;-6.40;99.90;;;;;;5052697;28;20691;-67
2021/01/11 07:59:11;;;;;;;91.80;21.88;;;-6.40;99.90;;;;;;5052131;28;20226;-67
2021/01/11 08:01:39;;;;;;;89.63;19.88;;;-6.30;99.90;;;;;;5052536;28;20205;-67
2021/01/11 08:04:05;;;;;;;89.05;22.63;;;-6.30;99.90;;;;;;5052717;28;20206;-67
2021/01/11 08:06:44;;;;;;;88.72;20.85;;;-6.30;99.90;;;;;;5052625;28;20229;-68
2021/01/11 08:09:12;;;;;;;91.57;20.58;;;-6.20;99.90;;;;;;5052139;28;20731;-68
2021/01/11 08:11:39;;;;;;;92.38;23.17;;;-6.10;99.90;;;;;;5053428;28;20201;-67
2021/01/11 08:14:06;;;;;;;81.40;18.60;;;-6.00;99.90;;;;;;5056213;28;20209;-68
2021/01/11 08:16:34;;;;;;;81.75;19.30;;;-5.90;99.90;;;;;;5053445;28;20263;-67
2021/01/11 08:19:04;;;;;;;85.65;20.35;;;-5.90;99.90;;;;;;5051956;28;20601;-67
2021/01/11 08:21:31;;;;;;;84.22;18.52;;;-5.80;99.90;;;;;;5052295;28;20217;-67
2021/01/11 08:24:01;;;;;;;88.03;21.33;;;-5.80;99.90;;;;;;5052311;28;20626;-67
2021/01/11 08:26:28;;;;;;;83.63;18.05;;;-5.70;99.90;;;;;;5051810;28;20248;-67
2021/01/11 08:28:56;;;;;;;83.05;20.02;;;-5.60;99.90;;;;;;5051612;28;20225;-67
2021/01/11 08:31:23;;;;;;;86.60;20.65;;;-5.50;99.90;;;;;;5052123;28;20236;-67
2021/01/11 08:33:50;;;;;;;92.93;23.20;;;-5.50;99.90;;;;;;5052121;28;20217;-67
2021/01/11 08:36:18;;;;;;;87.10;21.65;;;-5.40;99.90;;;;;;5051936;28;20205;-67
2021/01/11 08:39:20;;;;;;;89.00;19.77;;;-5.30;99.90;;;;;;5051743;28;20229;-67
2021/01/11 08:41:54;;;;;;;86.80;19.65;;;-5.20;99.90;;;;;;5051053;28;20236;-67
2021/01/11 08:44:39;;;;;;;89.65;20.45;;;-5.10;99.90;;;;;;5052133;28;20213;-70
2021/01/11 08:47:08;;;;;;;83.90;19.50;;;-5.10;99.90;;;;;;5051760;28;20209;-69
2021/01/11 08:49:54;;;;;;;91.10;21.77;;;-5.00;99.90;;;;;;5051238;28;20260;-69
2021/01/11 08:52:27;;;;;;;86.30;19.70;;;-4.90;99.90;;;;;;5051878;28;20211;-69
2021/01/11 08:54:54;;;;;;;85.78;19.08;;;-4.80;99.90;;;;;;5050990;28;20208;-67
2021/01/11 08:57:26;;;;;;;85.35;20.17;;;-4.70;99.90;;;;;;5051465;28;20263;-69
2021/01/11 08:59:54;;;;;;;87.68;21.27;;;-4.70;99.90;;;;;;5050644;28;20225;-70
2021/01/11 09:02:28;;;;;;;91.15;21.85;;;-4.60;99.90;;;;;;5051796;28;20202;-69
2021/01/11 09:04:56;;;;;;;89.30;22.90;;;-4.40;99.90;;;;;;5051137;28;20221;-66
2021/01/11 09:07:31;;;;;;;86.00;20.42;;;-4.30;99.90;;;;;;5051497;28;20209;-67
2021/01/11 09:09:58;;;;;;;89.75;23.33;;;-4.20;99.90;;;;;;5051187;28;20594;-68
2021/01/11 09:12:30;;;;;;;94.57;23.38;;;-4.10;99.90;;;;;;5051024;28;20206;-68
2021/01/11 09:14:57;;;;;;;86.53;20.95;;;-4.00;99.90;;;;;;5051372;28;20205;-69
2021/01/11 09:17:28;;;;;;;89.82;21.42;;;-3.90;99.90;;;;;;5051625;28;20206;-69
2021/01/11 09:19:58;;;;;;;89.22;21.83;;;-3.80;99.90;;;;;;5037285;28;20230;-69
2021/01/11 09:22:33;;;;;;;90.85;23.00;;;-3.70;99.90;;;;;;5031605;28;20206;-69
2021/01/11 09:25:01;;;;;;;88.10;22.58;;;-3.60;99.90;;;;;;5031129;28;20221;-69
2021/01/11 09:27:28;;;;;;;91.95;21.58;;;-3.50;99.90;;;;;;5031378;28;20674;-68
2021/01/11 09:29:54;;;;;;;86.40;20.63;;;-3.40;99.90;;;;;;5054908;22;20236;-68
2021/01/11 09:32:21;;;;;;;86.88;21.10;;;-3.30;99.90;;;;;;5029892;28;20206;-68
2021/01/11 09:34:47;;;;;;;85.88;20.90;;;-3.20;99.90;;;;;;5031680;28;20240;-68
2021/01/11 09:37:14;;;;;;;87.75;21.65;;;-3.10;99.90;;;;;;5031282;28;20267;-68
2021/01/11 09:39:41;;;;;;;86.32;22.48;;;-3.00;99.90;;;;;;5031190;28;20276;-68
2021/01/11 09:42:08;;;;;;;87.22;21.35;;;-2.80;99.90;;;;;;5031425;28;20202;-67
2021/01/11 09:44:34;;;;;;;86.57;20.40;;;-2.70;99.90;;;;;;5031637;28;20560;-68
2021/01/11 09:47:01;;;;;;;82.35;20.23;;;-2.60;99.90;;;;;;5031040;28;20233;-68
2021/01/11 09:49:28;;;;;;;84.65;19.35;;;-2.60;99.90;;;;;;5031191;28;20584;-68
2021/01/11 09:51:54;;;;;;;85.57;21.40;;;-2.40;99.90;;;;;;5031338;28;20253;-68
2021/01/11 09:54:22;;;;;;;86.35;21.75;;;-2.20;99.90;;;;;;5034387;28;20288;-68
2021/01/11 09:56:49;;;;;;;82.93;20.58;;;-1.90;99.90;;;;;;5035274;28;20582;-68
2021/01/11 09:59:15;;;;;;;89.18;20.73;;;-1.60;99.90;;;;;;5035228;28;20205;-68
2021/01/11 10:01:43;;;;;;;85.20;20.05;;;-1.30;99.90;;;;;;5035310;28;20213;-68
2021/01/11 10:04:11;;;;;;;84.38;18.35;;;-1.10;99.90;;;;;;5034874;28;20208;-68
2021/01/11 10:06:45;;;;;;;81.00;18.52;;;-0.80;99.90;;;;;;5034794;28;20264;-69
2021/01/11 10:09:12;;;;;;;81.75;19.52;;;-0.50;99.90;;;;;;5034740;28;20672;-68
2021/01/11 10:11:40;;;;;;;78.15;18.15;;;-0.40;99.90;;;;;;5035168;28;20236;-69
2021/01/11 10:14:07;;;;;;;79.47;17.08;;;-0.10;99.90;;;;;;5034670;28;20207;-68
2021/01/11 10:16:33;;;;;;;83.88;19.88;;;0.30;99.90;;;;;;5034769;28;20677;-68
2021/01/11 10:19:00;;;;;;;78.47;18.48;;;0.90;99.90;;;;;;5034410;28;20275;-68
2021/01/11 10:21:26;;;;;;;77.93;18.52;;;1.70;99.90;;;;;;5034781;28;20230;-68
2021/01/11 10:23:52;;;;;;;80.72;17.77;;;2.60;99.90;;;;;;5034806;28;20206;-68
2021/01/11 10:26:21;;;;;;;76.30;16.00;;;3.50;97.80;;;;;;5035093;28;20227;-68
2021/01/11 10:28:49;;;;;;;74.45;14.70;;;4.10;84.70;;;;;;5034500;28;20210;-68
2021/01/11 10:31:16;;;;;;;76.72;16.20;;;4.60;61.30;;;;;;5034264;28;20236;-68
2021/01/11 10:33:46;;;;;;;74.65;14.70;;;5.10;29.20;;;;;;5034416;28;20214;-68
2021/01/11 10:36:13;;;;;;;74.70;15.43;;;5.50;21.70;;;;;;5034721;28;20202;-69
2021/01/11 10:38:40;;;;;;;73.25;14.85;;;6.00;16.70;;;;;;5034830;28;20206;-69
2021/01/11 10:41:07;;;;;;;73.93;15.52;;;6.50;15.60;;;;;;5034386;28;20222;-69
2021/01/11 10:43:33;;;;;;;73.93;14.30;;;7.00;13.70;;;;;;5034559;28;20206;-69
2021/01/11 10:46:01;;;;;;;72.77;14.67;;;7.40;10.60;;;;;;5034219;28;20314;-68
2021/01/11 10:48:27;;;;;;;77.07;15.40;;;7.90;10.50;;;;;;5034310;28;20489;-69
2021/01/11 10:50:54;;;;;;;73.03;14.70;;;8.50;8.60;;;;;;5033851;28;20470;-69
2021/01/11 10:53:20;;;;;;;73.60;15.03;;;9.00;7.00;;;;;;5034355;28;20908;-69
2021/01/11 10:55:47;;;;;;;71.60;13.90;;;9.50;5.20;;;;;;5033974;28;20880;-68
2021/01/11 10:58:13;;;;;;;71.20;14.30;;;9.70;2.90;;;;;;5033807;28;20959;-68
2021/01/11 11:00:40;;;;;;;76.63;15.47;;;10.00;3.00;;;;;;5033630;28;21073;-68
2021/01/11 11:03:07;;;;;;;71.30;13.57;;;10.30;1.00;;;;;;5034186;28;20456;-67
2021/01/11 11:05:34;;;;;;;74.57;14.77;;;10.40;1.00;;;;;;5033591;28;20848;-67
2021/01/11 11:08:00;;;;;;;75.27;15.73;;;10.70;1.00;;;;;;5033832;28;20457;-67
2021/01/11 11:10:27;;;;;;;79.23;17.17;;;10.60;1.00;;;;;;5033698;28;20541;-67
2021/01/11 11:12:54;;;;;;;72.10;15.07;;;10.30;1.00;;;;;;5033771;28;20510;-67
2021/01/11 11:15:20;;;;;;;70.60;13.87;;;9.60;1.00;;;;;;5034172;28;20816;-67
2021/01/11 11:17:46;;;;;;;75.47;16.07;;;8.90;1.00;;;;;;5033388;28;20980;-67
2021/01/11 11:20:14;;;;;;;76.10;14.47;;;8.40;2.20;;;;;;5033524;28;20483;-67
2021/01/11 11:22:41;;;;;;;73.07;14.80;;;8.50;1.90;;;;;;5033792;28;20537;-67
2021/01/11 11:25:08;;;;;;;75.60;16.10;;;8.80;3.30;;;;;;5033793;28;20494;-68
2021/01/11 11:27:36;;;;;;;74.63;15.60;;;9.20;2.20;;;;;;5033628;28;20819;-67
2021/01/11 11:30:04;;;;;;;71.80;14.30;;;9.40;1.00;;;;;;5033391;28;20495;-67
2021/01/11 11:32:30;;;;;;;76.13;16.20;;;9.10;1.00;;;;;;5033602;28;20438;-67
2021/01/11 11:34:57;;;;;;;72.43;14.10;;;8.90;1.00;;;;;;5033262;28;20946;-67
2021/01/11 11:37:24;;;;;;;71.80;14.37;;;9.50;2.50;;;;;;5033580;28;20462;-68
2021/01/11 11:39:51;;;;;;;72.53;14.73;;;10.40;1.00;;;;;;5033211;28;20566;-67
2021/01/11 11:42:17;;;;;;;74.47;15.43;;;10.50;1.00;;;;;;5033066;28;20557;-67
2021/01/11 11:44:43;;;;;;;75.10;14.87;;;11.10;1.00;;;;;;5033358;28;20474;-67
2021/01/11 11:47:10;;;;;;;70.30;14.77;;;11.90;1.00;;;;;;5033246;28;20549;-67
2021/01/11 11:49:36;;;;;;;72.67;14.23;;;12.10;1.00;;;;;;5032999;28;20747;-67
2021/01/11 11:52:03;;;;;;;71.13;14.63;;;12.60;1.00;;;;;;5033167;28;20472;-67
2021/01/11 11:54:30;;;;;;;71.97;14.13;;;13.00;1.00;;;;;;5033059;28;20429;-67
2021/01/11 11:56:56;;;;;;;73.07;15.10;;;13.70;1.00;;;;;;5032872;28;20488;-68
2021/01/11 11:59:23;;;;;;;71.40;14.70;;;14.60;1.00;;;;;;5032666;28;20859;-67
2021/01/11 12:01:49;;;;;;;75.43;16.33;;;15.20;1.00;;;;;;5033153;28;20864;-67
2021/01/11 12:04:16;;;;;;;72.10;15.17;;;15.40;1.00;;;;;;5033032;28;20543;-67
2021/01/11 12:06:44;;;;;;;69.97;14.37;;;14.90;1.00;;;;;;5032526;28;20499;-67
2021/01/11 12:09:10;;;;;;;69.70;15.23;;;13.70;1.00;;;;;;5032739;28;20445;-67
2021/01/11 12:11:45;;;;;;;72.20;14.63;;;12.50;1.00;;;;;;5032651;28;20499;-67
2021/01/11 12:14:12;;;;;;;70.43;15.00;;;12.30;1.00;;;;;;5032706;28;20536;-68
2021/01/11 12:16:38;;;;;;;72.90;16.50;;;12.90;1.00;;;;;;5031546;28;20459;-67
2021/01/11 12:19:05;;;;;;;75.00;15.63;;;13.60;1.00;;;;;;5032547;28;20475;-69
2021/01/11 12:21:33;;;;;;;73.07;15.93;;;14.20;1.00;;;;;;5032446;28;20836;-67
2021/01/11 12:24:00;;;;;;;75.53;17.50;;;14.90;1.00;;;;;;5032326;28;20488;-67
2021/01/11 12:26:26;;;;;;;71.30;14.80;;;15.60;1.00;;;;;;5032289;28;20534;-67
2021/01/11 12:28:53;;;;;;;69.90;15.80;;;16.30;1.00;;;;;;5032433;28;20445;-67
2021/01/11 12:31:27;;;;;;;70.43;14.77;;;16.90;1.00;;;;;;5031859;28;20485;-68
2021/01/11 12:33:53;;;;;;;71.40;15.67;;;17.40;1.00;;;;;;5032275;28;20954;-67
2021/01/11 12:36:24;;;;;;;71.17;15.73;;;17.50;1.00;;;;;;5032582;28;20465;-67